createdAt,value
2022-12-07T00:00:55.378Z,97562.75
2022-12-07T00:03:22.593Z,97565.72
2022-12-07T00:05:49.738Z,97554.16
2022-12-07T00:08:16.917Z,97555.53
2022-12-07T00:10:44.163Z,97557.38
2022-12-07T00:13:11.270Z,97546.66
2022-12-07T00:15:39.858Z,97557.44
2022-12-07T00:18:07.258Z,97554.50
2022-12-07T00:20:34.424Z,97545.88
2022-12-07T00:23:01.566Z,97542.94
2022-12-07T00:25:28.726Z,97551.53
2022-12-07T00:27:55.851Z,97539.16
2022-12-07T00:30:23.295Z,97548.31
2022-12-07T00:32:51.823Z,97552.06
2022-12-07T00:35:18.932Z,97543.19
2022-12-07T00:37:46.051Z,97543.72
2022-12-07T00:40:13.668Z,97532.97
2022-12-07T00:42:40.775Z,97542.66
2022-12-07T00:45:09.281Z,97534.03
2022-12-07T00:47:36.403Z,97533.78
2022-12-07T00:50:06.086Z,97542.34
2022-12-07T00:52:33.194Z,97537.53
2022-12-07T00:55:00.310Z,97535.06
2022-12-07T00:57:27.430Z,97539.41
2022-12-07T00:59:54.538Z,97538.34
2022-12-07T01:02:22.023Z,97535.94
2022-12-07T01:04:49.369Z,97537.28
2022-12-07T01:07:17.835Z,97539.44
2022-12-07T01:09:45.280Z,97539.97
2022-12-07T01:12:12.393Z,97537.28
2022-12-07T01:14:39.537Z,97545.34
2022-12-07T01:17:06.778Z,97538.63
2022-12-07T01:19:33.978Z,97557.38
2022-12-07T01:22:01.079Z,97550.44
2022-12-07T01:24:29.723Z,97544.53
2022-12-07T01:26:56.838Z,97541.53
2022-12-07T01:29:23.935Z,97537.78
2022-12-07T01:31:51.042Z,97538.84
2022-12-07T01:34:18.140Z,97544.19
2022-12-07T01:36:45.258Z,97543.16
2022-12-07T01:39:12.579Z,97541.78
2022-12-07T01:41:42.429Z,97543.41
2022-12-07T01:44:16.253Z,97536.16
2022-12-07T01:46:45.261Z,97539.34
2022-12-07T01:49:18.710Z,97543.91
2022-12-07T01:51:49.027Z,97520.81
2022-12-07T01:54:17.933Z,97538.84
2022-12-07T01:56:51.124Z,97539.16
2022-12-07T01:59:20.868Z,97531.38
2022-12-07T02:01:48.012Z,97532.97
2022-12-07T02:04:16.118Z,97531.09
2022-12-07T02:06:44.565Z,97528.16
2022-12-07T02:09:12.537Z,97538.91
2022-12-07T02:11:40.177Z,97534.84
2022-12-07T02:14:08.706Z,97528.94
2022-12-07T02:16:42.356Z,97530.00
2022-12-07T02:19:39.070Z,97529.44
2022-12-07T02:22:34.092Z,97529.16
2022-12-07T02:25:10.093Z,97527.53
2022-12-07T02:27:47.288Z,97526.22
2022-12-07T02:30:17.787Z,97527.78
2022-12-07T02:32:51.921Z,97524.84
2022-12-07T02:35:22.630Z,97527.00
2022-12-07T02:37:59.283Z,97517.59
2022-12-07T02:40:32.357Z,97534.78
2022-12-07T02:43:03.671Z,97522.72
2022-12-07T02:45:34.742Z,97521.63
2022-12-07T02:48:03.273Z,97521.94
2022-12-07T02:50:30.462Z,97521.44
2022-12-07T02:52:57.579Z,97524.66
2022-12-07T02:55:29.631Z,97518.75
2022-12-07T02:58:15.158Z,97512.81
2022-12-07T03:00:52.914Z,97519.78
2022-12-07T03:03:20.191Z,97526.22
2022-12-07T03:06:12.563Z,97519.22
2022-12-07T03:08:49.399Z,97528.34
2022-12-07T03:11:23.033Z,97522.16
2022-12-07T03:13:57.605Z,97519.19
2022-12-07T03:16:29.807Z,97516.25
2022-12-07T03:19:00.547Z,97519.19
2022-12-07T03:21:33.290Z,97517.34
2022-12-07T03:24:06.667Z,97509.81
2022-12-07T03:26:38.299Z,97512.50
2022-12-07T03:29:10.458Z,97514.66
2022-12-07T03:31:44.270Z,97516.81
2022-12-07T03:34:17.607Z,97511.69
2022-12-07T03:36:50.421Z,97503.63
2022-12-07T03:39:26.233Z,97515.22
2022-12-07T03:41:54.820Z,97510.38
2022-12-07T03:44:23.191Z,97510.94
2022-12-07T03:47:02.330Z,97505.13
2022-12-07T03:49:38.213Z,97507.53
2022-12-07T03:52:13.431Z,97506.22
2022-12-07T03:54:45.634Z,97519.91
2022-12-07T03:57:13.692Z,97507.84
2022-12-07T03:59:42.717Z,97506.50
2022-12-07T04:02:13.745Z,97494.97
2022-12-07T04:04:41.269Z,97492.81
2022-12-07T04:07:08.375Z,97492.28
2022-12-07T04:09:35.646Z,97490.13
2022-12-07T04:12:02.827Z,97490.41
2022-12-07T04:14:29.939Z,97504.34
2022-12-07T04:16:58.951Z,97501.41
2022-12-07T04:19:29.962Z,97494.19
2022-12-07T04:21:58.343Z,97503.56
2022-12-07T04:24:25.573Z,97500.34
2022-12-07T04:26:52.893Z,97504.09
2022-12-07T04:29:20.556Z,97500.31
2022-12-07T04:31:48.137Z,97504.09
2022-12-07T04:34:16.076Z,97498.19
2022-12-07T04:36:45.543Z,97506.22
2022-12-07T04:39:19.858Z,97500.34
2022-12-07T04:41:47.139Z,97493.59
2022-12-07T04:44:15.470Z,97494.94
2022-12-07T04:46:43.326Z,97490.91
2022-12-07T04:49:11.579Z,97487.41
2022-12-07T04:51:38.904Z,97487.97
2022-12-07T04:54:07.413Z,97490.09
2022-12-07T04:56:34.940Z,97492.78
2022-12-07T04:59:03.232Z,97488.75
2022-12-07T05:01:30.669Z,97488.75
2022-12-07T05:03:57.813Z,97486.34
2022-12-07T05:06:25.518Z,97478.28
2022-12-07T05:08:52.754Z,97476.69
2022-12-07T05:11:21.806Z,97475.06
2022-12-07T05:13:49.139Z,97473.41
2022-12-07T05:16:16.408Z,97477.19
2022-12-07T05:18:43.567Z,97481.75
2022-12-07T05:21:10.678Z,97478.00
2022-12-07T05:23:37.821Z,97480.16
2022-12-07T05:26:05.167Z,97483.09
2022-12-07T05:28:33.614Z,97475.59
2022-12-07T05:31:00.728Z,97473.72
2022-12-07T05:33:27.873Z,97474.53
2022-12-07T05:35:54.984Z,97471.56
2022-12-07T05:38:22.260Z,97456.53
2022-12-07T05:40:49.406Z,97459.22
2022-12-07T05:43:16.515Z,97459.50
2022-12-07T05:45:45.028Z,97470.78
2022-12-07T05:48:12.243Z,97465.66
2022-12-07T05:50:39.398Z,97464.03
2022-12-07T05:53:06.498Z,97460.00
2022-12-07T05:55:33.620Z,97460.53
2022-12-07T05:58:00.743Z,97475.56
2022-12-07T06:00:27.866Z,97481.47
2022-12-07T06:02:56.505Z,97493.00
2022-12-07T06:05:23.880Z,97494.63
2022-12-07T06:07:51.031Z,97486.03
2022-12-07T06:10:18.215Z,97488.44
2022-12-07T06:12:45.367Z,97487.66
2022-12-07T06:15:12.777Z,97492.75
2022-12-07T06:17:40.238Z,97491.16
2022-12-07T06:20:09.965Z,97496.53
2022-12-07T06:22:37.115Z,97498.13
2022-12-07T06:25:08.382Z,97497.31
2022-12-07T06:27:35.943Z,97493.03
2022-12-07T06:30:04.339Z,97498.91
2022-12-07T06:32:31.656Z,97488.72
2022-12-07T06:34:58.768Z,97489.78
2022-12-07T06:37:27.302Z,97500.53
2022-12-07T06:39:54.578Z,97499.72
2022-12-07T06:42:21.721Z,97510.44
2022-12-07T06:44:48.849Z,97509.91
2022-12-07T06:50:04.003Z,97508.28
2022-12-07T06:52:32.698Z,97514.16
2022-12-07T06:54:59.815Z,97514.41
2022-12-07T06:57:27.184Z,97502.06
2022-12-07T06:59:54.317Z,97520.88
2022-12-07T07:02:21.452Z,97518.19
2022-12-07T07:04:48.574Z,97521.72
2022-12-07T07:07:15.700Z,97509.38
2022-12-07T07:09:44.228Z,97525.50
2022-12-07T07:12:11.375Z,97528.69
2022-12-07T07:14:38.472Z,97535.69
2022-12-07T07:17:05.662Z,97531.63
2022-12-07T07:19:33.011Z,97532.44
2022-12-07T07:22:00.111Z,97535.13
2022-12-07T07:24:27.226Z,97541.84
2022-12-07T07:26:55.910Z,97537.53
2022-12-07T07:29:23.016Z,97533.47
2022-12-07T07:31:50.210Z,97536.16
2022-12-07T07:34:17.527Z,97524.84
2022-12-07T07:36:44.728Z,97526.75
2022-12-07T07:39:12.002Z,97521.88
2022-12-07T07:41:39.322Z,97530.22
2022-12-07T07:44:07.794Z,97528.34
2022-12-07T07:46:34.983Z,97531.00
2022-12-07T07:49:02.134Z,97543.13
2022-12-07T07:51:29.307Z,97538.81
2022-12-07T07:53:56.404Z,97541.53
2022-12-07T07:56:23.511Z,97541.84
2022-12-07T07:58:52.713Z,97547.75
2022-12-07T08:01:21.370Z,97543.19
2022-12-07T08:03:48.699Z,97539.69
2022-12-07T08:06:15.883Z,97539.41
2022-12-07T08:08:43.055Z,97539.41
2022-12-07T08:11:10.507Z,97526.44
2022-12-07T08:13:37.664Z,97543.66
2022-12-07T08:16:06.743Z,97537.97
2022-12-07T08:18:38.137Z,97547.94
2022-12-07T08:21:06.595Z,97554.13
2022-12-07T08:23:39.548Z,97556.53
2022-12-07T08:26:09.174Z,97551.16
2022-12-07T08:28:36.739Z,97543.09
2022-12-07T08:31:06.082Z,97546.31
2022-12-07T08:33:33.505Z,97552.47
2022-12-07T08:36:03.322Z,97541.97
2022-12-07T08:38:32.141Z,97546.31
2022-12-07T08:41:00.076Z,97554.91
2022-12-07T08:43:27.411Z,97525.59
2022-12-07T08:46:04.755Z,97559.47
2022-12-07T08:48:33.172Z,97559.75
2022-12-07T08:51:03.943Z,97554.13
2022-12-07T08:53:31.217Z,97557.88
2022-12-07T08:55:58.408Z,97557.06
2022-12-07T08:58:25.696Z,97556.53
2022-12-07T09:00:52.790Z,97563.25
2022-12-07T09:03:19.920Z,97558.66
2022-12-07T09:05:47.243Z,97555.72
2022-12-07T09:08:16.374Z,97558.41
2022-12-07T09:10:43.664Z,97565.63
2022-12-07T09:13:10.792Z,97563.50
2022-12-07T09:15:37.955Z,97565.34
2022-12-07T09:18:05.158Z,97576.09
2022-12-07T09:20:32.497Z,97570.16
2022-12-07T09:22:59.591Z,97570.72
2022-12-07T09:25:28.092Z,97562.91
2022-12-07T09:27:58.894Z,97562.91
2022-12-07T09:30:26.604Z,97540.09
2022-12-07T09:32:53.929Z,97551.41
2022-12-07T09:35:21.431Z,97557.31
2022-12-07T09:37:48.545Z,97553.03
2022-12-07T09:40:17.495Z,97560.53
2022-12-07T09:42:48.575Z,97559.22
2022-12-07T09:45:19.559Z,97550.09
2022-12-07T09:47:47.086Z,97547.69
2022-12-07T09:50:16.422Z,97544.72
2022-12-07T09:52:45.783Z,97545.81
2022-12-07T09:55:15.349Z,97517.00
2022-12-07T09:57:43.825Z,97549.25
2022-12-07T10:00:16.019Z,97545.78
2022-12-07T10:02:45.564Z,97550.34
2022-12-07T10:05:22.064Z,97548.72
2022-12-07T10:07:51.287Z,97546.56
2022-12-07T10:10:23.965Z,97531.78
2022-12-07T10:12:57.430Z,97540.94
2022-12-07T10:15:42.808Z,97532.38
2022-12-07T10:18:20.232Z,97524.81
2022-12-07T10:20:47.769Z,97524.53
2022-12-07T10:23:16.347Z,97524.31
2022-12-07T10:25:43.887Z,97496.59
2022-12-07T10:28:16.698Z,97517.34
2022-12-07T10:30:51.769Z,97505.22
2022-12-07T10:33:49.108Z,97504.19
2022-12-07T10:36:19.837Z,97493.75
2022-12-07T10:38:49.319Z,97497.19
2022-12-07T10:41:16.674Z,97498.81
2022-12-07T10:43:54.715Z,97496.72
2022-12-07T10:46:52.037Z,97491.06
2022-12-07T10:49:45.537Z,97486.47
2022-12-07T10:52:23.037Z,97492.38
2022-12-07T10:55:02.999Z,97487.03
2022-12-07T10:57:45.071Z,97483.78
2022-12-07T11:00:18.929Z,97487.28
2022-12-07T11:03:00.627Z,97482.72
2022-12-07T11:05:34.743Z,97485.38
2022-12-07T11:08:13.931Z,97483.50
2022-12-07T11:10:49.875Z,97487.78
2022-12-07T11:13:28.715Z,97484.81
2022-12-07T11:16:34.283Z,97480.56
2022-12-07T11:19:16.080Z,97469.81
2022-12-07T11:21:49.583Z,97465.31
2022-12-07T11:24:18.416Z,97465.03
2022-12-07T11:27:04.015Z,97465.03
2022-12-07T11:29:50.558Z,97467.47
2022-12-07T11:32:30.364Z,97462.88
2022-12-07T11:35:06.727Z,97459.38
2022-12-07T11:37:36.436Z,97461.53
2022-12-07T11:40:17.805Z,97443.00
2022-12-07T11:42:50.678Z,97456.97
2022-12-07T11:45:24.240Z,97445.97
2022-12-07T11:47:57.089Z,97440.06
2022-12-07T11:50:34.251Z,97433.06
2022-12-07T11:53:10.306Z,97446.22
2022-12-07T11:55:44.329Z,97440.84
2022-12-07T11:58:23.459Z,97446.19
2022-12-07T12:00:56.574Z,97446.75
2022-12-07T12:03:29.498Z,97451.31
2022-12-07T12:05:58.225Z,97448.63
2022-12-07T12:11:37.141Z,97438.47
2022-12-07T12:14:46.804Z,97440.06
2022-12-07T12:17:33.895Z,97440.88
2022-12-07T12:20:06.816Z,97439.81
2022-12-07T12:22:38.358Z,97440.63
2022-12-07T12:25:07.481Z,97438.19
2022-12-07T12:27:36.326Z,97433.91
2022-12-07T12:30:08.708Z,97432.84
2022-12-07T12:32:41.165Z,97423.16
2022-12-07T12:35:30.988Z,97431.22
2022-12-07T12:41:49.471Z,97429.84
2022-12-07T12:45:04.534Z,97438.16
2022-12-07T12:48:03.781Z,97426.09
2022-12-07T12:50:33.100Z,97429.31
2022-12-07T12:53:17.423Z,97426.09
2022-12-07T12:56:27.220Z,97425.81
2022-12-07T12:59:26.013Z,97413.75
2022-12-07T13:01:56.213Z,97404.34
2022-12-07T13:04:48.740Z,97416.44
2022-12-07T13:07:54.645Z,97411.34
2022-12-07T13:10:26.732Z,97405.19
2022-12-07T13:12:58.354Z,97394.44
2022-12-07T13:15:44.454Z,97399.56
2022-12-07T13:18:26.441Z,97403.34
2022-12-07T13:20:56.676Z,97399.56
2022-12-07T13:23:32.483Z,97398.47
2022-12-07T13:26:06.310Z,97401.16
2022-12-07T13:28:37.779Z,97392.81
2022-12-07T13:31:15.040Z,97404.38
2022-12-07T13:33:45.340Z,97415.09
2022-12-07T13:36:19.976Z,97399.00
2022-12-07T13:38:53.246Z,97395.50
2022-12-07T13:41:21.875Z,97401.66
2022-12-07T13:44:02.059Z,97400.06
2022-12-07T13:46:41.410Z,97396.56
2022-12-07T13:49:18.345Z,97401.69
2022-12-07T13:51:46.851Z,97387.16
2022-12-07T13:54:14.993Z,97394.97
2022-12-07T13:56:42.801Z,97385.31
2022-12-07T13:59:15.672Z,97394.72
2022-12-07T14:01:43.278Z,97399.28
2022-12-07T14:04:32.790Z,97394.72
2022-12-07T14:07:18.885Z,97390.97
2022-12-07T14:09:54.927Z,97396.88
2022-12-07T14:12:22.288Z,97397.44
2022-12-07T14:14:50.095Z,97400.38
2022-12-07T14:17:20.634Z,97395.53
2022-12-07T14:19:50.831Z,97397.94
2022-12-07T14:22:25.812Z,97389.63
2022-12-07T14:25:00.251Z,97392.56
2022-12-07T14:27:34.137Z,97396.56
2022-12-07T14:30:05.890Z,97394.19
2022-12-07T14:32:35.964Z,97392.00
2022-12-07T14:35:10.043Z,97376.69
2022-12-07T14:37:40.571Z,97396.31
2022-12-07T14:40:13.025Z,97387.19
2022-12-07T14:42:40.897Z,97389.03
2022-12-07T14:45:15.465Z,97391.47
2022-12-07T14:50:30.519Z,97387.72
2022-12-07T14:55:50.147Z,97384.78
2022-12-07T14:58:18.704Z,97373.00
2022-12-07T15:00:45.880Z,97380.78
2022-12-07T15:03:13.039Z,97384.53
2022-12-07T15:05:40.792Z,97383.19
2022-12-07T15:08:09.745Z,97386.38
2022-12-07T15:10:36.904Z,97384.53
2022-12-07T15:13:04.322Z,97387.97
2022-12-07T15:15:32.261Z,97386.38
2022-12-07T15:17:59.551Z,97385.84
2022-12-07T15:20:26.663Z,97381.53
2022-12-07T15:22:53.780Z,97378.31
2022-12-07T15:25:22.232Z,97374.81
2022-12-07T15:27:49.366Z,97378.03
2022-12-07T15:30:16.846Z,97382.06
2022-12-07T15:32:44.133Z,97379.91
2022-12-07T15:35:11.367Z,97381.25
2022-12-07T15:37:38.710Z,97373.75
2022-12-07T15:40:08.139Z,97380.75
2022-12-07T15:42:38.080Z,97381.56
2022-12-07T15:45:07.417Z,97381.28
2022-12-07T15:47:54.898Z,97381.59
2022-12-07T15:50:24.463Z,97377.28
2022-12-07T15:52:51.668Z,97374.88
2022-12-07T15:55:18.804Z,97371.91
2022-12-07T15:57:47.318Z,97372.16
2022-12-07T16:00:15.258Z,97369.22
2022-12-07T16:02:42.439Z,97372.19
2022-12-07T16:05:09.617Z,97367.88
2022-12-07T16:07:36.788Z,97365.19
2022-12-07T16:10:05.064Z,97368.66
2022-12-07T16:12:32.187Z,97347.75
2022-12-07T16:15:00.960Z,97368.66
2022-12-07T16:17:28.277Z,97371.59
2022-12-07T16:19:55.423Z,97362.47
2022-12-07T16:22:22.535Z,97365.16
2022-12-07T16:24:49.694Z,97364.34
2022-12-07T16:27:16.892Z,97371.06
2022-12-07T16:29:44.101Z,97364.88
2022-12-07T16:32:12.645Z,97369.47
2022-12-07T16:34:40.651Z,97368.13
2022-12-07T16:37:07.754Z,97359.28
2022-12-07T16:39:35.262Z,97360.09
2022-12-07T16:42:02.525Z,97359.28
2022-12-07T16:44:29.662Z,97360.34
2022-12-07T16:46:56.928Z,97356.88
2022-12-07T16:49:25.590Z,97365.44
2022-12-07T16:52:14.732Z,97359.00
2022-12-07T16:54:40.305Z,97359.56
2022-12-07T16:57:07.413Z,97339.16
2022-12-07T16:59:34.821Z,97358.19
2022-12-07T17:02:01.986Z,97356.31
2022-12-07T17:04:30.562Z,97362.00
2022-12-07T17:06:57.874Z,97363.38
2022-12-07T17:09:25.021Z,97361.53
2022-12-07T17:11:52.115Z,97356.34
2022-12-07T17:14:19.230Z,97358.97
2022-12-07T17:16:47.191Z,97355.34
2022-12-07T17:19:16.477Z,97353.41
2022-12-07T17:21:45.568Z,97342.06
2022-12-07T17:24:16.297Z,97347.72
2022-12-07T17:26:45.440Z,97341.00
2022-12-07T17:29:14.800Z,97333.28
2022-12-07T17:31:45.128Z,97346.75
2022-12-07T17:34:16.914Z,97334.16
2022-12-07T17:36:45.460Z,97341.94
2022-12-07T17:39:15.288Z,97340.06
2022-12-07T17:41:42.725Z,97341.38
2022-12-07T17:44:12.163Z,97347.03
2022-12-07T17:46:39.997Z,97341.69
2022-12-07T17:49:07.602Z,97333.41
2022-12-07T17:51:36.020Z,97338.75
2022-12-07T17:54:04.697Z,97337.38
2022-12-07T17:56:31.849Z,97340.63
2022-12-07T17:58:59.117Z,97334.19
2022-12-07T18:01:31.293Z,97332.31
2022-12-07T18:04:01.514Z,97331.00
2022-12-07T18:06:28.644Z,97334.53
2022-12-07T18:08:56.156Z,97331.19
2022-12-07T18:11:24.825Z,97322.00
2022-12-07T18:13:52.542Z,97326.53
2022-12-07T18:16:22.464Z,97300.78
2022-12-07T18:18:52.786Z,97332.06
2022-12-07T18:21:22.562Z,97329.31
2022-12-07T18:23:52.448Z,97322.16
2022-12-07T18:26:21.033Z,97332.91
2022-12-07T18:28:50.504Z,97328.59
2022-12-07T18:31:18.358Z,97336.41
2022-12-07T18:33:46.510Z,97338.44
2022-12-07T18:36:14.990Z,97330.28
2022-12-07T18:38:42.405Z,97338.75
2022-12-07T18:41:11.456Z,97338.56
2022-12-07T18:43:38.598Z,97345.81
2022-12-07T18:46:11.796Z,97342.91
2022-12-07T18:48:39.028Z,97339.91
2022-12-07T18:51:07.979Z,97334.59
2022-12-07T18:53:35.547Z,97337.31
2022-12-07T18:56:04.264Z,97337.31
2022-12-07T18:58:31.795Z,97346.94
2022-12-07T19:00:59.334Z,97340.53
2022-12-07T19:03:33.114Z,97352.94
2022-12-07T19:06:05.149Z,97338.09
2022-12-07T19:08:32.188Z,97341.66
2022-12-07T19:10:59.296Z,97342.75
2022-12-07T19:13:26.406Z,97335.47
2022-12-07T19:15:53.542Z,97329.63
2022-12-07T19:18:20.655Z,97328.56
2022-12-07T19:20:49.167Z,97327.19
2022-12-07T19:23:16.263Z,97307.41
2022-12-07T19:25:43.375Z,97322.94
2022-12-07T19:28:10.519Z,97327.47
2022-12-07T19:30:37.974Z,97328.84
2022-12-07T19:33:05.077Z,97327.53
2022-12-07T19:35:32.195Z,97326.75
2022-12-07T19:38:00.670Z,97333.47
2022-12-07T19:40:27.773Z,97329.50
2022-12-07T19:42:54.896Z,97329.53
2022-12-07T19:45:21.987Z,97320.63
2022-12-07T19:47:49.079Z,97319.34
2022-12-07T19:50:16.627Z,97325.50
2022-12-07T19:52:43.802Z,97319.84
2022-12-07T19:55:12.258Z,97308.84
2022-12-07T19:57:39.439Z,97318.19
2022-12-07T20:00:08.394Z,97287.75
2022-12-07T20:02:35.605Z,97310.75
2022-12-07T20:05:06.095Z,97313.44
2022-12-07T20:07:33.722Z,97317.50
2022-12-07T20:10:00.824Z,97318.31
2022-12-07T20:12:29.312Z,97315.91
2022-12-07T20:14:56.452Z,97314.34
2022-12-07T20:17:23.651Z,97314.34
2022-12-07T20:19:50.849Z,97310.56
2022-12-07T20:22:17.966Z,97303.34
2022-12-07T20:24:45.085Z,97306.91
2022-12-07T20:27:12.251Z,97302.56
2022-12-07T20:29:40.726Z,97299.97
2022-12-07T20:32:10.885Z,97309.09
2022-12-07T20:34:38.031Z,97293.28
2022-12-07T20:37:05.146Z,97304.06
2022-12-07T20:39:32.258Z,97301.69
2022-12-07T20:41:59.407Z,97302.53
2022-12-07T20:44:26.914Z,97288.88
2022-12-07T20:46:55.417Z,97297.44
2022-12-07T20:49:22.838Z,97302.59
2022-12-07T20:51:50.051Z,97305.53
2022-12-07T20:54:17.259Z,97302.63
2022-12-07T20:56:44.498Z,97305.81
2022-12-07T20:59:14.141Z,97302.06
2022-12-07T21:01:41.776Z,97296.44
2022-12-07T21:04:11.825Z,97292.13
2022-12-07T21:06:38.922Z,97290.50
2022-12-07T21:09:06.040Z,97286.75
2022-12-07T21:11:33.177Z,97289.44
2022-12-07T21:14:00.324Z,97291.06
2022-12-07T21:16:29.605Z,97286.50
2022-12-07T21:18:59.272Z,97294.28
2022-12-07T21:21:28.478Z,97294.56
2022-12-07T21:24:01.710Z,97287.56
2022-12-07T21:26:30.225Z,97287.56
2022-12-07T21:28:57.501Z,97283.56
2022-12-07T21:31:25.674Z,97281.19
2022-12-07T21:33:52.883Z,97276.88
2022-12-07T21:36:22.105Z,97278.50
2022-12-07T21:38:51.099Z,97275.56
2022-12-07T21:41:20.353Z,97278.25
2022-12-07T21:43:48.268Z,97285.50
2022-12-07T21:46:16.769Z,97266.19
2022-12-07T21:48:49.858Z,97269.63
2022-12-07T21:51:17.102Z,97277.69
2022-12-07T21:53:44.278Z,97275.00
2022-12-07T21:56:16.890Z,97273.13
2022-12-07T21:58:44.525Z,97271.00
2022-12-07T22:01:16.184Z,97267.50
2022-12-07T22:03:43.580Z,97264.03
2022-12-07T22:06:13.063Z,97264.81
2022-12-07T22:08:40.547Z,97261.03
2022-12-07T22:11:08.195Z,97261.03
2022-12-07T22:13:38.585Z,97257.81
2022-12-07T22:16:06.841Z,97247.13
2022-12-07T22:18:33.978Z,97258.13
2022-12-07T22:21:01.081Z,97249.81
2022-12-07T22:23:28.241Z,97238.81
2022-12-07T22:25:55.361Z,97249.28
2022-12-07T22:28:22.473Z,97239.38
2022-12-07T22:30:50.962Z,97249.56
2022-12-07T22:33:18.119Z,97243.91
2022-12-07T22:35:52.321Z,97235.34
2022-12-07T22:38:19.249Z,97229.41
2022-12-07T22:40:46.317Z,97230.44
2022-12-07T22:43:13.517Z,97229.66
2022-12-07T22:45:40.647Z,97216.75
2022-12-07T22:48:09.265Z,97224.56
2022-12-07T22:50:37.245Z,97225.06
2022-12-07T22:53:04.529Z,97220.28
2022-12-07T22:55:31.640Z,97215.69
2022-12-07T22:57:58.803Z,97212.25
2022-12-07T23:00:25.977Z,97221.59
2022-12-07T23:02:53.176Z,97220.81
2022-12-07T23:05:21.668Z,97216.81
2022-12-07T23:07:48.979Z,97211.69
2022-12-07T23:10:16.272Z,97221.13
2022-12-07T23:12:43.398Z,97218.97
2022-12-07T23:15:11.320Z,97219.50
2022-12-07T23:17:38.454Z,97215.22
2022-12-07T23:20:06.657Z,97212.81
2022-12-07T23:22:35.184Z,97220.88
2022-12-07T23:25:02.744Z,97228.13
2022-12-07T23:27:30.106Z,97228.13
2022-12-07T23:29:57.242Z,97209.84
2022-12-07T23:32:24.341Z,97221.59
2022-12-07T23:34:51.496Z,97214.91
2022-12-07T23:37:18.650Z,97215.72
2022-12-07T23:39:47.118Z,97211.19
2022-12-07T23:42:14.310Z,97215.97
2022-12-07T23:44:41.458Z,97216.53
2022-12-07T23:47:08.700Z,97205.28
2022-12-07T23:49:35.950Z,97216.28
2022-12-07T23:52:03.458Z,97216.81
2022-12-07T23:54:30.595Z,97215.75
2022-12-07T23:56:59.059Z,97218.72
2022-12-07T23:59:26.193Z,97213.06
